sensor_id;sensor_type;location;lat;lon;timestamp;pressure;altitude;pressure_sealevel;temperature;humidity
11468;BME280;5790;42.762;23.430;2024-02-28T00:02:23;73743.66;;;-142.66;83.31
11468;BME280;5790;42.762;23.430;2024-02-28T00:04:50;73727.34;;;-142.66;82.95
11468;BME280;5790;42.762;23.430;2024-02-28T00:07:19;73723.25;;;-142.66;82.76
11468;BME280;5790;42.762;23.430;2024-02-28T00:09:46;73745.72;;;-142.66;83.15
11468;BME280;5790;42.762;23.430;2024-02-28T00:12:13;73737.53;;;-142.66;83.08
11468;BME280;5790;42.762;23.430;2024-02-28T00:14:40;73731.41;;;-142.66;82.99
11468;BME280;5790;42.762;23.430;2024-02-28T00:17:07;73731.41;;;-142.66;83.00
11468;BME280;5790;42.762;23.430;2024-02-28T00:19:35;73729.38;;;-142.66;82.98
11468;BME280;5790;42.762;23.430;2024-02-28T00:22:02;73749.78;;;-142.66;83.36
11468;BME280;5790;42.762;23.430;2024-02-28T00:24:30;73739.59;;;-142.66;83.32
11468;BME280;5790;42.762;23.430;2024-02-28T00:26:57;73753.88;;;-142.66;83.27
11468;BME280;5790;42.762;23.430;2024-02-28T00:29:24;73774.28;;;-142.66;83.91
11468;BME280;5790;42.762;23.430;2024-02-28T00:31:52;73780.41;;;-142.66;84.60
11468;BME280;5790;42.762;23.430;2024-02-28T00:34:19;73774.28;;;-142.66;84.38
11468;BME280;5790;42.762;23.430;2024-02-28T00:36:46;73786.53;;;-142.66;84.83
11468;BME280;5790;42.762;23.430;2024-02-28T00:39:13;73794.72;;;-142.66;85.15
11468;BME280;5790;42.762;23.430;2024-02-28T00:41:42;73796.75;;;-142.66;85.21
11468;BME280;5790;42.762;23.430;2024-02-28T00:44:09;73819.22;;;-142.66;86.15
11468;BME280;5790;42.762;23.430;2024-02-28T00:46:36;73817.16;;;-142.66;86.63
11468;BME280;5790;42.762;23.430;2024-02-28T00:49:03;73815.13;;;-142.66;86.84
11468;BME280;5790;42.762;23.430;2024-02-28T00:51:30;73817.16;;;-142.66;87.11
11468;BME280;5790;42.762;23.430;2024-02-28T00:53:57;73825.34;;;-142.66;87.31
11468;BME280;5790;42.762;23.430;2024-02-28T00:56:24;73819.22;;;-142.66;87.75
11468;BME280;5790;42.762;23.430;2024-02-28T00:58:54;73837.59;;;-142.66;87.85
11468;BME280;5790;42.762;23.430;2024-02-28T01:01:21;73874.34;;;-142.66;87.59
11468;BME280;5790;42.762;23.430;2024-02-28T01:03:48;73866.16;;;-142.66;88.59
11468;BME280;5790;42.762;23.430;2024-02-28T01:06:15;73860.03;;;-142.66;87.87
11468;BME280;5790;42.762;23.430;2024-02-28T01:08:42;73870.25;;;-142.66;87.44
11468;BME280;5790;42.762;23.430;2024-02-28T01:11:10;73868.22;;;-142.66;86.97
11468;BME280;5790;42.762;23.430;2024-02-28T01:13:37;73872.28;;;-142.66;86.79
11468;BME280;5790;42.762;23.430;2024-02-28T01:16:06;73862.09;;;-142.66;86.17
11468;BME280;5790;42.762;23.430;2024-02-28T01:18:33;73853.91;;;-142.66;85.58
11468;BME280;5790;42.762;23.430;2024-02-28T01:21:00;73835.53;;;-142.66;85.14
11468;BME280;5790;42.762;23.430;2024-02-28T01:23:27;73813.09;;;-142.66;84.35
11468;BME280;5790;42.762;23.430;2024-02-28T01:25:54;73815.13;;;-142.66;83.64
11468;BME280;5790;42.762;23.430;2024-02-28T01:28:21;73796.75;;;-142.66;83.52
11468;BME280;5790;42.762;23.430;2024-02-28T01:30:48;73802.88;;;-142.66;82.94
11468;BME280;5790;42.762;23.430;2024-02-28T01:33:17;73833.50;;;-142.66;83.52
11468;BME280;5790;42.762;23.430;2024-02-28T01:35:44;73847.78;;;-142.66;84.20
11468;BME280;5790;42.762;23.430;2024-02-28T01:38:11;73870.25;;;-142.66;84.78
11468;BME280;5790;42.762;23.430;2024-02-28T01:40:38;73894.75;;;-142.66;85.85
11468;BME280;5790;42.762;23.430;2024-02-28T01:43:07;73923.34;;;-142.66;87.06
11468;BME280;5790;42.762;23.430;2024-02-28T01:45:34;73919.25;;;-142.66;87.54
11468;BME280;5790;42.762;23.430;2024-02-28T01:48:02;73925.38;;;-142.66;87.95
11468;BME280;5790;42.762;23.430;2024-02-28T01:50:32;73943.75;;;-142.66;88.46
11468;BME280;5790;42.762;23.430;2024-02-28T01:53:00;73945.78;;;-142.66;88.89
11468;BME280;5790;42.762;23.430;2024-02-28T01:55:27;73929.47;;;-142.66;88.53
11468;BME280;5790;42.762;23.430;2024-02-28T01:57:55;73941.72;;;-142.66;88.74
11468;BME280;5790;42.762;23.430;2024-02-28T02:00:24;73933.53;;;-142.66;88.16
11468;BME280;5790;42.762;23.430;2024-02-28T02:02:52;73947.84;;;-142.66;90.02
11468;BME280;5790;42.762;23.430;2024-02-28T02:05:19;73951.91;;;-142.66;91.87
11468;BME280;5790;42.762;23.430;2024-02-28T02:07:48;73953.97;;;-142.66;92.63
11468;BME280;5790;42.762;23.430;2024-02-28T02:10:16;73970.28;;;-142.66;93.03
11468;BME280;5790;42.762;23.430;2024-02-28T02:12:44;73968.25;;;-142.66;93.72
11468;BME280;5790;42.762;23.430;2024-02-28T02:15:11;73972.34;;;-142.66;94.07
11468;BME280;5790;42.762;23.430;2024-02-28T02:17:38;73974.38;;;-142.66;94.16
11468;BME280;5790;42.762;23.430;2024-02-28T02:20:07;73951.91;;;-142.66;93.82
11468;BME280;5790;42.762;23.430;2024-02-28T02:22:38;73945.78;;;-142.66;93.35
11468;BME280;5790;42.762;23.430;2024-02-28T02:25:06;73927.41;;;-142.66;92.75
11468;BME280;5790;42.762;23.430;2024-02-28T02:27:33;73929.47;;;-142.66;92.23
11468;BME280;5790;42.762;23.430;2024-02-28T02:30:00;73911.09;;;-142.66;91.52
11468;BME280;5790;42.762;23.430;2024-02-28T02:32:27;73911.09;;;-142.66;92.33
11468;BME280;5790;42.762;23.430;2024-02-28T02:34:55;73919.25;;;-142.66;92.84
11468;BME280;5790;42.762;23.430;2024-02-28T02:37:22;73913.13;;;-142.66;93.68
11468;BME280;5790;42.762;23.430;2024-02-28T02:39:51;73927.41;;;-142.66;93.75
11468;BME280;5790;42.762;23.430;2024-02-28T02:42:19;73921.28;;;-142.66;93.62
11468;BME280;5790;42.762;23.430;2024-02-28T02:44:46;73949.88;;;-142.66;94.15
11468;BME280;5790;42.762;23.430;2024-02-28T02:47:13;73939.66;;;-142.66;94.32
11468;BME280;5790;42.762;23.430;2024-02-28T02:49:40;73947.84;;;-142.66;94.05
11468;BME280;5790;42.762;23.430;2024-02-28T02:52:07;73949.88;;;-142.66;93.06
11468;BME280;5790;42.762;23.430;2024-02-28T02:54:34;73937.63;;;-142.66;92.32
11468;BME280;5790;42.762;23.430;2024-02-28T02:57:03;73941.72;;;-142.66;91.54
11468;BME280;5790;42.762;23.430;2024-02-28T02:59:30;73956.00;;;-142.66;91.84
11468;BME280;5790;42.762;23.430;2024-02-28T03:01:57;73956.00;;;-142.66;92.77
11468;BME280;5790;42.762;23.430;2024-02-28T03:04:25;73943.75;;;-142.66;92.70
11468;BME280;5790;42.762;23.430;2024-02-28T03:06:52;73945.78;;;-142.66;92.83
11468;BME280;5790;42.762;23.430;2024-02-28T03:09:19;73951.91;;;-142.66;92.63
11468;BME280;5790;42.762;23.430;2024-02-28T03:11:46;73943.75;;;-142.66;91.96
11468;BME280;5790;42.762;23.430;2024-02-28T03:14:14;73937.63;;;-142.66;91.39
11468;BME280;5790;42.762;23.430;2024-02-28T03:16:41;73951.91;;;-142.66;91.53
11468;BME280;5790;42.762;23.430;2024-02-28T03:19:09;73966.22;;;-142.66;91.46
11468;BME280;5790;42.762;23.430;2024-02-28T03:21:36;73933.53;;;-142.66;91.07
11468;BME280;5790;42.762;23.430;2024-02-28T03:24:04;73972.34;;;-142.66;90.60
11468;BME280;5790;42.762;23.430;2024-02-28T03:26:31;73945.78;;;-142.66;90.65
11468;BME280;5790;42.762;23.430;2024-02-28T03:28:58;73927.41;;;-142.66;90.33
11468;BME280;5790;42.762;23.430;2024-02-28T03:31:27;73919.25;;;-142.66;89.59
11468;BME280;5790;42.762;23.430;2024-02-28T03:33:54;73911.09;;;-142.66;89.30
11468;BME280;5790;42.762;23.430;2024-02-28T03:36:21;73898.84;;;-142.66;88.19
11468;BME280;5790;42.762;23.430;2024-02-28T03:38:48;73894.75;;;-142.66;87.52
11468;BME280;5790;42.762;23.430;2024-02-28T03:41:15;73886.59;;;-142.66;86.93
11468;BME280;5790;42.762;23.430;2024-02-28T03:43:42;73892.72;;;-142.66;86.70
11468;BME280;5790;42.762;23.430;2024-02-28T03:46:09;73911.09;;;-142.66;86.91
11468;BME280;5790;42.762;23.430;2024-02-28T03:48:38;73915.16;;;-142.66;87.57
11468;BME280;5790;42.762;23.430;2024-02-28T03:51:05;73941.72;;;-142.66;88.91
11468;BME280;5790;42.762;23.430;2024-02-28T03:53:32;73929.47;;;-142.66;88.94
11468;BME280;5790;42.762;23.430;2024-02-28T03:55:59;73941.72;;;-142.66;88.59
11468;BME280;5790;42.762;23.430;2024-02-28T03:58:27;73951.91;;;-142.66;88.36
11468;BME280;5790;42.762;23.430;2024-02-28T04:00:54;73941.72;;;-142.66;87.69
11468;BME280;5790;42.762;23.430;2024-02-28T04:03:21;73968.25;;;-142.66;87.27
11468;BME280;5790;42.762;23.430;2024-02-28T04:05:50;73986.63;;;-142.66;88.06
11468;BME280;5790;42.762;23.430;2024-02-28T04:08:17;73990.72;;;-142.66;88.20
11468;BME280;5790;42.762;23.430;2024-02-28T04:10:44;73988.66;;;-142.66;87.82
11468;BME280;5790;42.762;23.430;2024-02-28T04:13:11;74000.91;;;-142.66;88.44
11468;BME280;5790;42.762;23.430;2024-02-28T04:15:38;73990.72;;;-142.66;88.04
11468;BME280;5790;42.762;23.430;2024-02-28T04:18:05;73982.53;;;-142.66;87.89
11468;BME280;5790;42.762;23.430;2024-02-28T04:20:33;73986.63;;;-142.66;87.70
11468;BME280;5790;42.762;23.430;2024-02-28T04:23:01;73970.28;;;-142.66;87.97
11468;BME280;5790;42.762;23.430;2024-02-28T04:25:28;73962.13;;;-142.66;87.64
11468;BME280;5790;42.762;23.430;2024-02-28T04:27:55;73964.16;;;-142.66;87.50
11468;BME280;5790;42.762;23.430;2024-02-28T04:30:22;73951.91;;;-142.66;87.29
11468;BME280;5790;42.762;23.430;2024-02-28T04:32:49;73956.00;;;-142.66;87.46
11468;BME280;5790;42.762;23.430;2024-02-28T04:35:16;73953.97;;;-142.66;87.62
11468;BME280;5790;42.762;23.430;2024-02-28T04:37:44;73958.03;;;-142.66;87.84
11468;BME280;5790;42.762;23.430;2024-02-28T04:40:13;73976.41;;;-142.66;88.62
11468;BME280;5790;42.762;23.430;2024-02-28T04:42:41;73972.34;;;-142.66;88.18
11468;BME280;5790;42.762;23.430;2024-02-28T04:45:09;73962.13;;;-142.66;87.77
11468;BME280;5790;42.762;23.430;2024-02-28T04:47:37;73980.50;;;-142.66;87.66
11468;BME280;5790;42.762;23.430;2024-02-28T04:50:05;73996.84;;;-142.66;88.51
11468;BME280;5790;42.762;23.430;2024-02-28T04:52:32;74002.97;;;-142.66;88.48
11468;BME280;5790;42.762;23.430;2024-02-28T04:54:59;74000.91;;;-142.66;88.24
11468;BME280;5790;42.762;23.430;2024-02-28T04:57:28;74015.22;;;-142.66;88.58
11468;BME280;5790;42.762;23.430;2024-02-28T04:59:55;74015.22;;;-142.66;88.92
11468;BME280;5790;42.762;23.430;2024-02-28T05:02:22;74007.03;;;-142.66;89.04
11468;BME280;5790;42.762;23.430;2024-02-28T05:04:49;73986.63;;;-142.66;87.98
11468;BME280;5790;42.762;23.430;2024-02-28T05:07:17;73990.72;;;-142.66;87.70
11468;BME280;5790;42.762;23.430;2024-02-28T05:09:44;73984.59;;;-142.66;87.73
11468;BME280;5790;42.762;23.430;2024-02-28T05:12:11;74002.97;;;-142.66;87.85
11468;BME280;5790;42.762;23.430;2024-02-28T05:14:40;74025.44;;;-142.66;88.38
11468;BME280;5790;42.762;23.430;2024-02-28T05:17:07;74005.00;;;-142.66;87.50
11468;BME280;5790;42.762;23.430;2024-02-28T05:19:34;73994.78;;;-142.66;86.91
11468;BME280;5790;42.762;23.430;2024-02-28T05:22:01;74000.91;;;-142.66;86.74
11468;BME280;5790;42.762;23.430;2024-02-28T05:24:28;74005.00;;;-142.66;87.18
11468;BME280;5790;42.762;23.430;2024-02-28T05:26:55;74000.91;;;-142.66;87.22
11468;BME280;5790;42.762;23.430;2024-02-28T05:29:22;74009.09;;;-142.66;87.02
11468;BME280;5790;42.762;23.430;2024-02-28T05:31:51;74058.09;;;-142.66;87.78
11468;BME280;5790;42.762;23.430;2024-02-28T05:34:18;74092.81;;;-142.66;88.61
11468;BME280;5790;42.762;23.430;2024-02-28T05:36:45;74135.69;;;-142.66;89.97
11468;BME280;5790;42.762;23.430;2024-02-28T05:39:12;74117.31;;;-142.66;90.04
11468;BME280;5790;42.762;23.430;2024-02-28T05:41:39;74115.25;;;-142.66;90.54
11468;BME280;5790;42.762;23.430;2024-02-28T05:44:06;74121.38;;;-142.66;90.36
11468;BME280;5790;42.762;23.430;2024-02-28T05:46:33;74139.75;;;-142.66;89.98
11468;BME280;5790;42.762;23.430;2024-02-28T05:49:03;74100.97;;;-142.66;89.61
11468;BME280;5790;42.762;23.430;2024-02-28T05:51:30;74080.56;;;-142.66;88.63
11468;BME280;5790;42.762;23.430;2024-02-28T05:53:57;74066.25;;;-142.66;88.00
11468;BME280;5790;42.762;23.430;2024-02-28T05:56:24;74049.94;;;-142.66;88.11
11468;BME280;5790;42.762;23.430;2024-02-28T05:58:51;74039.72;;;-142.66;87.46
11468;BME280;5790;42.762;23.430;2024-02-28T06:01:18;74029.50;;;-142.66;87.30
11468;BME280;5790;42.762;23.430;2024-02-28T06:03:45;74029.50;;;-142.66;86.95
11468;BME280;5790;42.762;23.430;2024-02-28T06:06:16;74025.44;;;-142.66;86.26
11468;BME280;5790;42.762;23.430;2024-02-28T06:08:45;74011.13;;;-142.66;86.18
11468;BME280;5790;42.762;23.430;2024-02-28T06:11:12;74005.00;;;-142.66;86.05
11468;BME280;5790;42.762;23.430;2024-02-28T06:13:40;73980.50;;;-142.66;86.13
11468;BME280;5790;42.762;23.430;2024-02-28T06:16:07;73966.22;;;-142.66;85.72
11468;BME280;5790;42.762;23.430;2024-02-28T06:18:40;73939.66;;;-142.66;85.62
11468;BME280;5790;42.762;23.430;2024-02-28T06:21:06;73925.38;;;-142.66;84.82
11468;BME280;5790;42.762;23.430;2024-02-28T06:23:35;73898.84;;;-142.66;84.04
11468;BME280;5790;42.762;23.430;2024-02-28T06:26:02;73888.63;;;-142.66;83.67
11468;BME280;5790;42.762;23.430;2024-02-28T06:28:29;73888.63;;;-142.66;83.47
11468;BME280;5790;42.762;23.430;2024-02-28T06:30:57;73880.47;;;-142.66;83.23
11468;BME280;5790;42.762;23.430;2024-02-28T06:33:24;73902.91;;;-142.66;83.36
11468;BME280;5790;42.762;23.430;2024-02-28T06:35:51;73866.16;;;-142.66;82.84
11468;BME280;5790;42.762;23.430;2024-02-28T06:38:18;73855.97;;;-142.66;83.16
11468;BME280;5790;42.762;23.430;2024-02-28T06:40:46;73849.84;;;-142.66;83.01
11468;BME280;5790;42.762;23.430;2024-02-28T06:43:13;73811.03;;;-142.66;82.84
11468;BME280;5790;42.762;23.430;2024-02-28T06:45:41;73786.53;;;-142.66;82.67
11468;BME280;5790;42.762;23.430;2024-02-28T06:48:08;73786.53;;;-142.66;82.14
11468;BME280;5790;42.762;23.430;2024-02-28T06:50:35;73755.91;;;-142.66;82.10
11468;BME280;5790;42.762;23.430;2024-02-28T06:53:02;73737.53;;;-142.66;81.77
11468;BME280;5790;42.762;23.430;2024-02-28T06:55:29;73723.25;;;-142.66;81.96
11468;BME280;5790;42.762;23.430;2024-02-28T06:57:58;73700.78;;;-142.66;81.33
11468;BME280;5790;42.762;23.430;2024-02-28T07:00:24;73690.59;;;-142.66;81.43
11468;BME280;5790;42.762;23.430;2024-02-28T07:02:51;73674.25;;;-142.66;80.86
11468;BME280;5790;42.762;23.430;2024-02-28T07:05:18;73690.59;;;-142.66;84.38
11468;BME280;5790;42.762;23.430;2024-02-28T07:07:45;73692.63;;;-142.66;85.44
11468;BME280;5790;42.762;23.430;2024-02-28T07:10:13;73700.78;;;-142.66;85.43
11468;BME280;5790;42.762;23.430;2024-02-28T07:12:40;73717.13;;;-142.66;85.71
11468;BME280;5790;42.762;23.430;2024-02-28T07:15:08;73715.09;;;-142.66;86.51
11468;BME280;5790;42.762;23.430;2024-02-28T07:17:35;73713.03;;;-142.66;85.95
11468;BME280;5790;42.762;23.430;2024-02-28T07:20:03;73737.53;;;-142.66;86.43
11468;BME280;5790;42.762;23.430;2024-02-28T07:22:30;73729.38;;;-142.66;86.90
11468;BME280;5790;42.762;23.430;2024-02-28T07:24:57;73725.28;;;-142.66;86.69
11468;BME280;5790;42.762;23.430;2024-02-28T07:27:24;73700.78;;;-142.66;87.32
11468;BME280;5790;42.762;23.430;2024-02-28T07:29:51;73694.69;;;-142.66;85.78
11468;BME280;5790;42.762;23.430;2024-02-28T07:32:19;73713.03;;;-142.66;85.50
11468;BME280;5790;42.762;23.430;2024-02-28T07:34:46;73723.25;;;-142.66;86.31
11468;BME280;5790;42.762;23.430;2024-02-28T07:37:13;73690.59;;;-142.66;86.27
11468;BME280;5790;42.762;23.430;2024-02-28T07:39:41;73713.03;;;-142.66;85.20
11468;BME280;5790;42.762;23.430;2024-02-28T07:42:08;73702.84;;;-142.66;85.83
11468;BME280;5790;42.762;23.430;2024-02-28T07:44:35;73692.63;;;-142.66;85.20
11468;BME280;5790;42.762;23.430;2024-02-28T07:47:02;73711.00;;;-142.66;85.29
11468;BME280;5790;42.762;23.430;2024-02-28T07:49:31;73702.84;;;-142.66;85.05
11468;BME280;5790;42.762;23.430;2024-02-28T07:51:58;73706.91;;;-142.66;85.66
11468;BME280;5790;42.762;23.430;2024-02-28T07:54:25;73686.50;;;-142.66;84.83
11468;BME280;5790;42.762;23.430;2024-02-28T07:56:52;73647.72;;;-142.66;84.45
11468;BME280;5790;42.762;23.430;2024-02-28T07:59:19;73647.72;;;-142.66;84.07
11468;BME280;5790;42.762;23.430;2024-02-28T08:01:47;73617.09;;;-142.66;84.03
11468;BME280;5790;42.762;23.430;2024-02-28T08:04:14;73617.09;;;-142.66;83.24
11468;BME280;5790;42.762;23.430;2024-02-28T08:06:42;73608.94;;;-142.66;83.71
11468;BME280;5790;42.762;23.430;2024-02-28T08:09:09;73594.63;;;-142.66;83.52
11468;BME280;5790;42.762;23.430;2024-02-28T08:11:37;73631.38;;;-142.66;83.58
11468;BME280;5790;42.762;23.430;2024-02-28T08:14:04;73639.56;;;-142.66;83.72
11468;BME280;5790;42.762;23.430;2024-02-28T08:16:31;73623.22;;;-142.66;83.98
11468;BME280;5790;42.762;23.430;2024-02-28T08:18:58;73602.81;;;-142.66;83.86
11468;BME280;5790;42.762;23.430;2024-02-28T08:21:25;73572.19;;;-142.66;83.13
11468;BME280;5790;42.762;23.430;2024-02-28T08:23:54;73559.94;;;-142.66;82.47
11468;BME280;5790;42.762;23.430;2024-02-28T08:26:23;73557.88;;;-142.66;82.79
11468;BME280;5790;42.762;23.430;2024-02-28T08:28:50;73559.94;;;-142.66;82.68
11468;BME280;5790;42.762;23.430;2024-02-28T08:31:17;73539.53;;;-142.66;82.55
11468;BME280;5790;42.762;23.430;2024-02-28T08:33:44;73539.53;;;-142.66;82.12
11468;BME280;5790;42.762;23.430;2024-02-28T08:36:11;73508.91;;;-142.66;82.19
11468;BME280;5790;42.762;23.430;2024-02-28T08:38:38;73490.53;;;-142.66;80.83
11468;BME280;5790;42.762;23.430;2024-02-28T08:41:07;73492.56;;;-142.66;80.74
11468;BME280;5790;42.762;23.430;2024-02-28T08:43:37;73474.19;;;-142.66;80.42
11468;BME280;5790;42.762;23.430;2024-02-28T08:46:05;73474.19;;;-142.66;79.51
11468;BME280;5790;42.762;23.430;2024-02-28T08:48:32;73494.59;;;-142.66;79.81
11468;BME280;5790;42.762;23.430;2024-02-28T08:50:59;73500.72;;;-142.66;80.34
11468;BME280;5790;42.762;23.430;2024-02-28T08:53:26;73472.16;;;-142.66;80.19
11468;BME280;5790;42.762;23.430;2024-02-28T08:55:53;73459.91;;;-142.66;79.73
11468;BME280;5790;42.762;23.430;2024-02-28T08:58:21;73431.31;;;-142.66;78.77
11468;BME280;5790;42.762;23.430;2024-02-28T09:00:48;73423.16;;;-142.66;79.05
11468;BME280;5790;42.762;23.430;2024-02-28T09:03:15;73421.13;;;-142.66;78.66
11468;BME280;5790;42.762;23.430;2024-02-28T09:05:43;73396.63;;;-142.66;77.92
11468;BME280;5790;42.762;23.430;2024-02-28T09:08:10;73382.34;;;-142.66;78.01
11468;BME280;5790;42.762;23.430;2024-02-28T09:10:36;73392.53;;;-142.66;76.71
11468;BME280;5790;42.762;23.430;2024-02-28T09:13:03;73404.78;;;-142.66;77.16
11468;BME280;5790;42.762;23.430;2024-02-28T09:15:34;73406.81;;;-142.66;77.60
11468;BME280;5790;42.762;23.430;2024-02-28T09:18:02;73394.56;;;-142.66;77.16
11468;BME280;5790;42.762;23.430;2024-02-28T09:20:29;73390.50;;;-142.66;76.76
11468;BME280;5790;42.762;23.430;2024-02-28T09:22:56;73380.28;;;-142.66;76.55
11468;BME280;5790;42.762;23.430;2024-02-28T09:25:23;73390.50;;;-142.66;75.37
11468;BME280;5790;42.762;23.430;2024-02-28T09:27:50;73412.94;;;-142.66;76.90
11468;BME280;5790;42.762;23.430;2024-02-28T09:30:17;73382.34;;;-142.66;76.04
11468;BME280;5790;42.762;23.430;2024-02-28T09:32:45;73337.41;;;-142.66;76.68
11468;BME280;5790;42.762;23.430;2024-02-28T09:35:13;73323.13;;;-142.66;74.90
11468;BME280;5790;42.762;23.430;2024-02-28T09:37:41;73300.69;;;-142.66;74.54
11468;BME280;5790;42.762;23.430;2024-02-28T09:40:09;73308.84;;;-142.66;73.25
11468;BME280;5790;42.762;23.430;2024-02-28T09:42:36;73302.72;;;-142.66;72.41
11468;BME280;5790;42.762;23.430;2024-02-28T09:45:04;73292.50;;;-142.66;71.53
11468;BME280;5790;42.762;23.430;2024-02-28T09:47:35;73261.88;;;-142.66;71.40
11468;BME280;5790;42.762;23.430;2024-02-28T09:50:04;73255.75;;;-142.66;70.66
11468;BME280;5790;42.762;23.430;2024-02-28T09:52:32;73227.19;;;-142.66;70.59
11468;BME280;5790;42.762;23.430;2024-02-28T09:54:59;73225.16;;;-142.66;69.05
11468;BME280;5790;42.762;23.430;2024-02-28T09:57:26;73210.84;;;-142.66;68.25
11468;BME280;5790;42.762;23.430;2024-02-28T09:59:56;73202.69;;;-142.66;67.98
11468;BME280;5790;42.762;23.430;2024-02-28T10:02:24;73182.28;;;-142.66;67.35
11468;BME280;5790;42.762;23.430;2024-02-28T10:04:52;73172.06;;;-142.66;67.22
11468;BME280;5790;42.762;23.430;2024-02-28T10:07:20;73163.91;;;-142.66;64.78
11468;BME280;5790;42.762;23.430;2024-02-28T10:09:48;73153.69;;;-142.66;65.18
11468;BME280;5790;42.762;23.430;2024-02-28T10:12:15;73135.34;;;-142.66;63.94
11468;BME280;5790;42.762;23.430;2024-02-28T10:14:42;73143.50;;;-142.66;64.29
11468;BME280;5790;42.762;23.430;2024-02-28T10:17:09;73123.09;;;-142.66;63.70
11468;BME280;5790;42.762;23.430;2024-02-28T10:19:36;73129.22;;;-142.66;62.56
11468;BME280;5790;42.762;23.430;2024-02-28T10:22:04;73131.25;;;-142.66;62.86
11468;BME280;5790;42.762;23.430;2024-02-28T10:24:34;73143.50;;;-142.66;62.81
11468;BME280;5790;42.762;23.430;2024-02-28T10:27:03;73141.47;;;-142.66;62.92
11468;BME280;5790;42.762;23.430;2024-02-28T10:29:31;73141.47;;;-142.66;63.49
11468;BME280;5790;42.762;23.430;2024-02-28T10:31:59;73139.41;;;-142.66;63.10
11468;BME280;5790;42.762;23.430;2024-02-28T10:34:26;73143.50;;;-142.66;62.93
11468;BME280;5790;42.762;23.430;2024-02-28T10:36:53;73145.53;;;-142.66;62.59
11468;BME280;5790;42.762;23.430;2024-02-28T10:39:21;73147.56;;;-142.66;63.04
11468;BME280;5790;42.762;23.430;2024-02-28T10:41:50;73143.50;;;-142.66;62.95
11468;BME280;5790;42.762;23.430;2024-02-28T10:44:20;73129.22;;;-142.66;62.97
11468;BME280;5790;42.762;23.430;2024-02-28T10:46:49;73121.03;;;-142.66;62.29
11468;BME280;5790;42.762;23.430;2024-02-28T10:49:17;73114.91;;;-142.66;61.81
11468;BME280;5790;42.762;23.430;2024-02-28T10:51:45;73100.63;;;-142.66;61.60
11468;BME280;5790;42.762;23.430;2024-02-28T10:54:13;73094.50;;;-142.66;60.94
11468;BME280;5790;42.762;23.430;2024-02-28T10:56:42;73076.13;;;-142.66;61.42
11468;BME280;5790;42.762;23.430;2024-02-28T10:59:11;73055.72;;;-142.66;61.71
11468;BME280;5790;42.762;23.430;2024-02-28T11:01:40;73037.34;;;-142.66;59.90
11468;BME280;5790;42.762;23.430;2024-02-28T11:04:09;73023.06;;;-142.66;59.55
11468;BME280;5790;42.762;23.430;2024-02-28T11:06:47;73006.72;;;-142.66;56.99
11468;BME280;5790;42.762;23.430;2024-02-28T11:09:19;73006.72;;;-142.66;57.99
11468;BME280;5790;42.762;23.430;2024-02-28T11:11:48;72986.31;;;-142.66;55.96
11468;BME280;5790;42.762;23.430;2024-02-28T11:14:17;72974.06;;;-142.66;56.93
11468;BME280;5790;42.762;23.430;2024-02-28T11:16:47;72996.53;;;-142.66;55.49
11468;BME280;5790;42.762;23.430;2024-02-28T11:19:21;72972.03;;;-142.66;57.48
11468;BME280;5790;42.762;23.430;2024-02-28T11:21:53;72949.59;;;-142.66;55.24
11468;BME280;5790;42.762;23.430;2024-02-28T11:24:23;72933.25;;;-142.66;53.75
11468;BME280;5790;42.762;23.430;2024-02-28T11:26:51;72916.94;;;-142.66;54.05
11468;BME280;5790;42.762;23.430;2024-02-28T11:29:28;72892.44;;;-142.66;53.88
11468;BME280;5790;42.762;23.430;2024-02-28T11:31:56;72894.47;;;-142.66;51.94
11468;BME280;5790;42.762;23.430;2024-02-28T11:34:23;72904.69;;;-142.66;52.00
11468;BME280;5790;42.762;23.430;2024-02-28T11:36:50;72904.69;;;-142.66;51.91
11468;BME280;5790;42.762;23.430;2024-02-28T11:39:18;72918.97;;;-142.66;50.90
11468;BME280;5790;42.762;23.430;2024-02-28T11:41:46;72898.56;;;-142.66;51.48
11468;BME280;5790;42.762;23.430;2024-02-28T11:44:15;72892.44;;;-142.66;52.99
11468;BME280;5790;42.762;23.430;2024-02-28T11:46:44;72876.09;;;-142.66;51.35
11468;BME280;5790;42.762;23.430;2024-02-28T11:49:12;72861.81;;;-142.66;49.73
11468;BME280;5790;42.762;23.430;2024-02-28T11:51:40;72853.66;;;-142.66;51.05
11468;BME280;5790;42.762;23.430;2024-02-28T11:54:08;72839.38;;;-142.66;50.78
11468;BME280;5790;42.762;23.430;2024-02-28T11:56:36;72823.03;;;-142.66;49.33
11468;BME280;5790;42.762;23.430;2024-02-28T11:59:03;72810.78;;;-142.66;48.27
11468;BME280;5790;42.762;23.430;2024-02-28T12:01:35;72810.78;;;-142.66;48.84
11468;BME280;5790;42.762;23.430;2024-02-28T12:04:04;72798.53;;;-142.66;46.91
11468;BME280;5790;42.762;23.430;2024-02-28T12:06:32;72796.50;;;-142.66;48.63
11468;BME280;5790;42.762;23.430;2024-02-28T12:09:00;72782.22;;;-142.66;47.78
11468;BME280;5790;42.762;23.430;2024-02-28T12:11:29;72790.38;;;-142.66;46.25
11468;BME280;5790;42.762;23.430;2024-02-28T12:13:56;72786.31;;;-142.66;48.21
11468;BME280;5790;42.762;23.430;2024-02-28T12:16:24;72769.97;;;-142.66;48.95
11468;BME280;5790;42.762;23.430;2024-02-28T12:18:53;72765.88;;;-142.66;46.74
11468;BME280;5790;42.762;23.430;2024-02-28T12:21:22;72772.00;;;-142.66;46.26
11468;BME280;5790;42.762;23.430;2024-02-28T12:23:49;72755.69;;;-142.66;46.45
11468;BME280;5790;42.762;23.430;2024-02-28T12:26:17;72745.47;;;-142.66;46.21
11468;BME280;5790;42.762;23.430;2024-02-28T12:28:45;72747.53;;;-142.66;44.90
11468;BME280;5790;42.762;23.430;2024-02-28T12:31:12;72772.00;;;-142.66;44.89
11468;BME280;5790;42.762;23.430;2024-02-28T12:33:39;72757.72;;;-142.66;45.18
11468;BME280;5790;42.762;23.430;2024-02-28T12:36:07;72755.69;;;-142.66;44.11
11468;BME280;5790;42.762;23.430;2024-02-28T12:38:36;72767.94;;;-142.66;45.32
11468;BME280;5790;42.762;23.430;2024-02-28T12:41:03;72774.06;;;-142.66;44.48
11468;BME280;5790;42.762;23.430;2024-02-28T12:43:30;72776.09;;;-142.66;44.49